Eva, Louisiana
Current Conditions -  °F | °C
As of 2:35 AM on Thursday 18 Dec 2014 (Local Time) from KHEZ Reporting Station
Overcast Overcast  
Wind Chill: 48°   Ceiling: 9500
Heat Index: 48°   Visibility: 10mi
Dew Point: 43°   Wind: 3mph
Humidity: 82%   Direction: 110°ESE
Pressure: 30.18"   Gusts: NA
Location:  31.3468°N, 91.6624°W
Report Text: KHEZ 180835Z AUTO 11003KT 10SM FEW065 OVC095 09/06 A3018 RMK AO1
Loading
Personal Weather Stations






























Interactive Weather Map New forecast layout! Learn more

10-Day Weather Forecast

Advertisements
Track Severe Weather on mobile